sensor_id;sensor_type;location;lat;lon;timestamp;temperature;humidity
6988;DHT22;3534;49.960;8.018;2023-07-16T00:00:14;21.50;99.90
6988;DHT22;3534;49.960;8.018;2023-07-16T00:02:41;21.50;99.90
6988;DHT22;3534;49.960;8.018;2023-07-16T00:05:08;21.50;99.90
6988;DHT22;3534;49.960;8.018;2023-07-16T00:07:35;21.40;99.90
6988;DHT22;3534;49.960;8.018;2023-07-16T00:10:02;21.40;99.90
6988;DHT22;3534;49.960;8.018;2023-07-16T00:12:29;21.30;99.90
6988;DHT22;3534;49.960;8.018;2023-07-16T00:14:57;21.30;99.90
6988;DHT22;3534;49.960;8.018;2023-07-16T00:17:23;21.30;99.90
6988;DHT22;3534;49.960;8.018;2023-07-16T00:19:50;21.30;99.90
6988;DHT22;3534;49.960;8.018;2023-07-16T00:22:17;21.20;99.90
6988;DHT22;3534;49.960;8.018;2023-07-16T00:24:43;21.20;99.90
6988;DHT22;3534;49.960;8.018;2023-07-16T00:27:10;21.10;99.90
6988;DHT22;3534;49.960;8.018;2023-07-16T00:29:36;21.10;99.90
6988;DHT22;3534;49.960;8.018;2023-07-16T00:32:05;21.10;99.90
6988;DHT22;3534;49.960;8.018;2023-07-16T00:34:32;21.10;99.90
6988;DHT22;3534;49.960;8.018;2023-07-16T00:36:59;21.00;99.90
6988;DHT22;3534;49.960;8.018;2023-07-16T00:39:27;21.00;99.90
6988;DHT22;3534;49.960;8.018;2023-07-16T00:41:54;20.90;99.90
6988;DHT22;3534;49.960;8.018;2023-07-16T00:44:21;20.80;99.90
6988;DHT22;3534;49.960;8.018;2023-07-16T00:46:48;20.80;99.90
6988;DHT22;3534;49.960;8.018;2023-07-16T00:49:16;20.80;99.90
6988;DHT22;3534;49.960;8.018;2023-07-16T00:51:43;20.80;99.90
6988;DHT22;3534;49.960;8.018;2023-07-16T00:54:10;20.80;99.90
6988;DHT22;3534;49.960;8.018;2023-07-16T00:56:37;20.70;99.90
6988;DHT22;3534;49.960;8.018;2023-07-16T00:59:04;20.70;99.90
6988;DHT22;3534;49.960;8.018;2023-07-16T01:01:31;20.70;99.90
6988;DHT22;3534;49.960;8.018;2023-07-16T01:03:58;20.70;99.90
6988;DHT22;3534;49.960;8.018;2023-07-16T01:06:33;20.70;99.90
6988;DHT22;3534;49.960;8.018;2023-07-16T01:09:03;20.70;99.90
6988;DHT22;3534;49.960;8.018;2023-07-16T01:11:33;20.70;99.90
6988;DHT22;3534;49.960;8.018;2023-07-16T01:14:02;20.70;99.90
6988;DHT22;3534;49.960;8.018;2023-07-16T01:16:29;20.60;99.90
6988;DHT22;3534;49.960;8.018;2023-07-16T01:18:55;20.60;99.90
6988;DHT22;3534;49.960;8.018;2023-07-16T01:21:23;20.60;99.90
6988;DHT22;3534;49.960;8.018;2023-07-16T01:27:10;20.60;99.90
6988;DHT22;3534;49.960;8.018;2023-07-16T01:29:42;20.60;99.90
6988;DHT22;3534;49.960;8.018;2023-07-16T01:32:12;20.50;99.90
6988;DHT22;3534;49.960;8.018;2023-07-16T01:34:40;20.50;99.90
6988;DHT22;3534;49.960;8.018;2023-07-16T01:37:07;20.50;99.90
6988;DHT22;3534;49.960;8.018;2023-07-16T01:39:34;20.50;99.90
6988;DHT22;3534;49.960;8.018;2023-07-16T01:42:01;20.50;99.90
6988;DHT22;3534;49.960;8.018;2023-07-16T01:44:28;20.40;99.90
6988;DHT22;3534;49.960;8.018;2023-07-16T01:47:10;20.40;99.90
6988;DHT22;3534;49.960;8.018;2023-07-16T01:49:37;20.40;99.90
6988;DHT22;3534;49.960;8.018;2023-07-16T01:52:05;20.40;99.90
6988;DHT22;3534;49.960;8.018;2023-07-16T01:54:32;20.40;99.90
6988;DHT22;3534;49.960;8.018;2023-07-16T01:56:59;20.40;99.90
6988;DHT22;3534;49.960;8.018;2023-07-16T01:59:25;20.40;99.90
6988;DHT22;3534;49.960;8.018;2023-07-16T02:01:52;20.40;99.90
6988;DHT22;3534;49.960;8.018;2023-07-16T02:04:20;20.40;99.90
6988;DHT22;3534;49.960;8.018;2023-07-16T02:06:47;20.40;99.90
6988;DHT22;3534;49.960;8.018;2023-07-16T02:09:14;20.40;99.90
6988;DHT22;3534;49.960;8.018;2023-07-16T02:11:41;20.30;99.90
6988;DHT22;3534;49.960;8.018;2023-07-16T02:14:07;20.30;99.90
6988;DHT22;3534;49.960;8.018;2023-07-16T02:16:34;20.20;99.90
6988;DHT22;3534;49.960;8.018;2023-07-16T02:19:01;20.20;99.90
6988;DHT22;3534;49.960;8.018;2023-07-16T02:21:29;20.20;99.90
6988;DHT22;3534;49.960;8.018;2023-07-16T02:23:56;20.10;99.90
6988;DHT22;3534;49.960;8.018;2023-07-16T02:26:22;20.10;99.90
6988;DHT22;3534;49.960;8.018;2023-07-16T02:28:49;20.00;99.90
6988;DHT22;3534;49.960;8.018;2023-07-16T02:31:16;20.00;99.90
6988;DHT22;3534;49.960;8.018;2023-07-16T02:33:42;20.00;99.90
6988;DHT22;3534;49.960;8.018;2023-07-16T02:36:09;20.00;99.90
6988;DHT22;3534;49.960;8.018;2023-07-16T02:38:37;20.00;99.90
6988;DHT22;3534;49.960;8.018;2023-07-16T02:41:04;20.00;99.90
6988;DHT22;3534;49.960;8.018;2023-07-16T02:43:31;20.00;99.90
6988;DHT22;3534;49.960;8.018;2023-07-16T02:45:57;20.00;99.90
6988;DHT22;3534;49.960;8.018;2023-07-16T02:48:24;19.90;99.90
6988;DHT22;3534;49.960;8.018;2023-07-16T02:50:51;19.90;99.90
6988;DHT22;3534;49.960;8.018;2023-07-16T02:53:17;19.90;99.90
6988;DHT22;3534;49.960;8.018;2023-07-16T02:55:46;19.80;99.90
6988;DHT22;3534;49.960;8.018;2023-07-16T02:58:13;19.80;99.90
6988;DHT22;3534;49.960;8.018;2023-07-16T03:00:40;19.80;99.90
6988;DHT22;3534;49.960;8.018;2023-07-16T03:03:06;19.80;99.90
6988;DHT22;3534;49.960;8.018;2023-07-16T03:05:33;19.80;99.90
6988;DHT22;3534;49.960;8.018;2023-07-16T03:08:00;19.80;99.90
6988;DHT22;3534;49.960;8.018;2023-07-16T03:10:26;19.80;99.90
6988;DHT22;3534;49.960;8.018;2023-07-16T03:12:55;19.80;99.90
6988;DHT22;3534;49.960;8.018;2023-07-16T03:15:21;19.80;99.90
6988;DHT22;3534;49.960;8.018;2023-07-16T03:17:48;19.80;99.90
6988;DHT22;3534;49.960;8.018;2023-07-16T03:20:15;19.70;99.90
6988;DHT22;3534;49.960;8.018;2023-07-16T03:22:42;19.70;99.90
6988;DHT22;3534;49.960;8.018;2023-07-16T03:25:08;19.70;99.90
6988;DHT22;3534;49.960;8.018;2023-07-16T03:27:35;19.70;99.90
6988;DHT22;3534;49.960;8.018;2023-07-16T03:30:04;19.60;99.90
6988;DHT22;3534;49.960;8.018;2023-07-16T03:32:31;19.60;99.90
6988;DHT22;3534;49.960;8.018;2023-07-16T03:34:58;19.60;99.90
6988;DHT22;3534;49.960;8.018;2023-07-16T03:37:24;19.50;99.90
6988;DHT22;3534;49.960;8.018;2023-07-16T03:39:51;19.50;99.90
6988;DHT22;3534;49.960;8.018;2023-07-16T03:42:18;19.50;99.90
6988;DHT22;3534;49.960;8.018;2023-07-16T03:44:45;19.50;99.90
6988;DHT22;3534;49.960;8.018;2023-07-16T03:47:13;19.40;99.90
6988;DHT22;3534;49.960;8.018;2023-07-16T03:49:39;19.40;99.90
6988;DHT22;3534;49.960;8.018;2023-07-16T03:52:06;19.50;99.90
6988;DHT22;3534;49.960;8.018;2023-07-16T03:54:33;19.50;99.90
6988;DHT22;3534;49.960;8.018;2023-07-16T03:57:00;19.40;99.90
6988;DHT22;3534;49.960;8.018;2023-07-16T03:59:26;19.50;99.90
6988;DHT22;3534;49.960;8.018;2023-07-16T04:01:53;19.50;99.90
6988;DHT22;3534;49.960;8.018;2023-07-16T04:04:21;19.50;99.90
6988;DHT22;3534;49.960;8.018;2023-07-16T04:06:48;19.50;99.90
6988;DHT22;3534;49.960;8.018;2023-07-16T04:09:15;19.50;99.90
6988;DHT22;3534;49.960;8.018;2023-07-16T04:11:41;19.40;99.90
6988;DHT22;3534;49.960;8.018;2023-07-16T04:14:08;19.40;99.90
6988;DHT22;3534;49.960;8.018;2023-07-16T04:16:35;19.40;99.90
6988;DHT22;3534;49.960;8.018;2023-07-16T04:19:01;19.40;99.90
6988;DHT22;3534;49.960;8.018;2023-07-16T04:21:29;19.30;99.90
6988;DHT22;3534;49.960;8.018;2023-07-16T04:23:56;19.40;99.90
6988;DHT22;3534;49.960;8.018;2023-07-16T04:26:23;19.40;99.90
6988;DHT22;3534;49.960;8.018;2023-07-16T04:28:50;19.30;99.90
6988;DHT22;3534;49.960;8.018;2023-07-16T04:31:16;19.30;99.90
6988;DHT22;3534;49.960;8.018;2023-07-16T04:33:43;19.30;99.90
6988;DHT22;3534;49.960;8.018;2023-07-16T04:36:10;19.30;99.90
6988;DHT22;3534;49.960;8.018;2023-07-16T04:38:38;19.40;99.90
6988;DHT22;3534;49.960;8.018;2023-07-16T04:41:04;19.30;99.90
6988;DHT22;3534;49.960;8.018;2023-07-16T04:43:31;19.30;99.90
6988;DHT22;3534;49.960;8.018;2023-07-16T04:45:58;19.30;99.90
6988;DHT22;3534;49.960;8.018;2023-07-16T04:48:25;19.30;99.90
6988;DHT22;3534;49.960;8.018;2023-07-16T04:50:52;19.30;99.90
6988;DHT22;3534;49.960;8.018;2023-07-16T04:53:19;19.30;99.90
6988;DHT22;3534;49.960;8.018;2023-07-16T04:55:47;19.30;99.90
6988;DHT22;3534;49.960;8.018;2023-07-16T04:58:14;19.30;99.90
6988;DHT22;3534;49.960;8.018;2023-07-16T05:00:41;19.30;99.90
6988;DHT22;3534;49.960;8.018;2023-07-16T05:03:08;19.30;99.90
6988;DHT22;3534;49.960;8.018;2023-07-16T05:05:34;19.30;99.90
6988;DHT22;3534;49.960;8.018;2023-07-16T05:08:01;19.30;99.90
6988;DHT22;3534;49.960;8.018;2023-07-16T05:10:28;19.30;99.90
6988;DHT22;3534;49.960;8.018;2023-07-16T05:12:56;19.30;99.90
6988;DHT22;3534;49.960;8.018;2023-07-16T05:15:23;19.30;99.90
6988;DHT22;3534;49.960;8.018;2023-07-16T05:17:49;19.30;99.90
6988;DHT22;3534;49.960;8.018;2023-07-16T05:20:16;19.30;99.90
6988;DHT22;3534;49.960;8.018;2023-07-16T05:22:43;19.30;99.90
6988;DHT22;3534;49.960;8.018;2023-07-16T05:25:10;19.30;99.90
6988;DHT22;3534;49.960;8.018;2023-07-16T05:27:36;19.30;99.90
6988;DHT22;3534;49.960;8.018;2023-07-16T05:30:06;19.40;99.90
6988;DHT22;3534;49.960;8.018;2023-07-16T05:32:32;19.40;99.90
6988;DHT22;3534;49.960;8.018;2023-07-16T05:34:59;19.40;99.90
6988;DHT22;3534;49.960;8.018;2023-07-16T05:37:26;19.40;99.90
6988;DHT22;3534;49.960;8.018;2023-07-16T05:39:52;19.40;99.90
6988;DHT22;3534;49.960;8.018;2023-07-16T05:42:19;19.40;99.90
6988;DHT22;3534;49.960;8.018;2023-07-16T05:44:47;19.40;99.90
6988;DHT22;3534;49.960;8.018;2023-07-16T05:47:15;19.40;99.90
6988;DHT22;3534;49.960;8.018;2023-07-16T05:49:43;19.40;99.90
6988;DHT22;3534;49.960;8.018;2023-07-16T05:52:10;19.40;99.90
6988;DHT22;3534;49.960;8.018;2023-07-16T05:54:36;19.40;99.90
6988;DHT22;3534;49.960;8.018;2023-07-16T05:57:03;19.40;99.90
6988;DHT22;3534;49.960;8.018;2023-07-16T05:59:30;19.40;99.90
6988;DHT22;3534;49.960;8.018;2023-07-16T06:01:59;19.50;99.90
6988;DHT22;3534;49.960;8.018;2023-07-16T06:04:27;19.40;99.90
6988;DHT22;3534;49.960;8.018;2023-07-16T06:06:55;19.50;99.90
6988;DHT22;3534;49.960;8.018;2023-07-16T06:09:22;19.50;99.90
6988;DHT22;3534;49.960;8.018;2023-07-16T06:11:49;19.50;99.90
6988;DHT22;3534;49.960;8.018;2023-07-16T06:14:16;19.60;99.90
6988;DHT22;3534;49.960;8.018;2023-07-16T06:16:43;19.60;99.90
6988;DHT22;3534;49.960;8.018;2023-07-16T06:19:09;19.60;99.90
6988;DHT22;3534;49.960;8.018;2023-07-16T06:21:37;19.70;99.90
6988;DHT22;3534;49.960;8.018;2023-07-16T06:24:04;19.70;99.90
6988;DHT22;3534;49.960;8.018;2023-07-16T06:26:31;19.70;99.90
6988;DHT22;3534;49.960;8.018;2023-07-16T06:28:58;19.70;99.90
6988;DHT22;3534;49.960;8.018;2023-07-16T06:31:25;19.70;99.90
6988;DHT22;3534;49.960;8.018;2023-07-16T06:33:51;19.80;99.90
6988;DHT22;3534;49.960;8.018;2023-07-16T06:36:18;19.80;99.90
6988;DHT22;3534;49.960;8.018;2023-07-16T06:38:47;19.80;99.90
6988;DHT22;3534;49.960;8.018;2023-07-16T06:41:14;19.90;99.90
6988;DHT22;3534;49.960;8.018;2023-07-16T06:43:40;19.90;99.90
6988;DHT22;3534;49.960;8.018;2023-07-16T06:46:07;19.90;99.90
6988;DHT22;3534;49.960;8.018;2023-07-16T06:48:34;20.00;99.90
6988;DHT22;3534;49.960;8.018;2023-07-16T06:51:00;20.00;99.90
6988;DHT22;3534;49.960;8.018;2023-07-16T06:53:27;20.00;99.90
6988;DHT22;3534;49.960;8.018;2023-07-16T06:55:55;20.00;99.90
6988;DHT22;3534;49.960;8.018;2023-07-16T06:58:30;20.10;99.90
6988;DHT22;3534;49.960;8.018;2023-07-16T07:00:57;20.10;99.90
6988;DHT22;3534;49.960;8.018;2023-07-16T07:03:23;20.10;99.90
6988;DHT22;3534;49.960;8.018;2023-07-16T07:05:50;20.20;99.90
6988;DHT22;3534;49.960;8.018;2023-07-16T07:08:17;20.20;99.90
6988;DHT22;3534;49.960;8.018;2023-07-16T07:10:43;20.30;99.90
6988;DHT22;3534;49.960;8.018;2023-07-16T07:13:11;20.30;99.90
6988;DHT22;3534;49.960;8.018;2023-07-16T07:15:38;20.40;99.90
6988;DHT22;3534;49.960;8.018;2023-07-16T07:18:05;20.40;99.90
6988;DHT22;3534;49.960;8.018;2023-07-16T07:20:31;20.40;99.90
6988;DHT22;3534;49.960;8.018;2023-07-16T07:22:58;20.50;99.90
6988;DHT22;3534;49.960;8.018;2023-07-16T07:25:27;20.50;99.90
6988;DHT22;3534;49.960;8.018;2023-07-16T07:27:54;20.50;99.90
6988;DHT22;3534;49.960;8.018;2023-07-16T07:30:22;20.50;99.90
6988;DHT22;3534;49.960;8.018;2023-07-16T07:32:49;20.60;99.90
6988;DHT22;3534;49.960;8.018;2023-07-16T07:35:16;20.60;99.90
6988;DHT22;3534;49.960;8.018;2023-07-16T07:37:42;20.60;99.90
6988;DHT22;3534;49.960;8.018;2023-07-16T07:40:10;20.60;99.90
6988;DHT22;3534;49.960;8.018;2023-07-16T07:42:36;20.60;99.90
6988;DHT22;3534;49.960;8.018;2023-07-16T07:45:04;20.70;99.90
6988;DHT22;3534;49.960;8.018;2023-07-16T07:47:32;20.70;99.90
6988;DHT22;3534;49.960;8.018;2023-07-16T07:49:59;20.80;99.90
6988;DHT22;3534;49.960;8.018;2023-07-16T07:52:27;20.80;99.90
6988;DHT22;3534;49.960;8.018;2023-07-16T07:54:53;20.80;99.90
6988;DHT22;3534;49.960;8.018;2023-07-16T07:57:20;20.80;99.90
6988;DHT22;3534;49.960;8.018;2023-07-16T07:59:47;20.90;99.90
6988;DHT22;3534;49.960;8.018;2023-07-16T08:02:13;21.00;99.90
6988;DHT22;3534;49.960;8.018;2023-07-16T08:04:41;21.00;99.90
6988;DHT22;3534;49.960;8.018;2023-07-16T08:07:08;21.00;99.90
6988;DHT22;3534;49.960;8.018;2023-07-16T08:12:03;21.10;99.90
6988;DHT22;3534;49.960;8.018;2023-07-16T08:14:30;21.20;99.90
6988;DHT22;3534;49.960;8.018;2023-07-16T08:16:56;21.20;99.90
6988;DHT22;3534;49.960;8.018;2023-07-16T08:19:23;21.20;99.90
6988;DHT22;3534;49.960;8.018;2023-07-16T08:21:51;21.20;99.90
6988;DHT22;3534;49.960;8.018;2023-07-16T08:24:18;21.30;99.90
6988;DHT22;3534;49.960;8.018;2023-07-16T08:26:45;21.30;99.90
6988;DHT22;3534;49.960;8.018;2023-07-16T08:29:11;21.30;99.90
6988;DHT22;3534;49.960;8.018;2023-07-16T08:31:38;21.30;99.90
6988;DHT22;3534;49.960;8.018;2023-07-16T08:34:05;21.30;99.90
6988;DHT22;3534;49.960;8.018;2023-07-16T08:36:33;21.40;99.90
6988;DHT22;3534;49.960;8.018;2023-07-16T08:39:01;21.40;99.90
6988;DHT22;3534;49.960;8.018;2023-07-16T08:41:28;21.50;99.90
6988;DHT22;3534;49.960;8.018;2023-07-16T08:43:55;21.60;99.90
6988;DHT22;3534;49.960;8.018;2023-07-16T08:46:22;21.60;99.90
6988;DHT22;3534;49.960;8.018;2023-07-16T08:48:50;21.70;99.90
6988;DHT22;3534;49.960;8.018;2023-07-16T08:51:20;21.70;99.90
6988;DHT22;3534;49.960;8.018;2023-07-16T08:53:47;21.80;99.90
6988;DHT22;3534;49.960;8.018;2023-07-16T08:56:15;21.80;99.90
6988;DHT22;3534;49.960;8.018;2023-07-16T08:58:43;21.80;99.90
6988;DHT22;3534;49.960;8.018;2023-07-16T09:01:10;21.80;99.90
6988;DHT22;3534;49.960;8.018;2023-07-16T09:03:38;21.90;99.90
6988;DHT22;3534;49.960;8.018;2023-07-16T09:06:04;21.90;99.90
6988;DHT22;3534;49.960;8.018;2023-07-16T09:08:31;22.00;99.90
6988;DHT22;3534;49.960;8.018;2023-07-16T09:10:58;22.00;99.90
6988;DHT22;3534;49.960;8.018;2023-07-16T09:13:26;22.00;99.90
6988;DHT22;3534;49.960;8.018;2023-07-16T09:15:53;22.10;99.90
6988;DHT22;3534;49.960;8.018;2023-07-16T09:18:21;22.10;99.90
6988;DHT22;3534;49.960;8.018;2023-07-16T09:20:48;22.10;99.90
6988;DHT22;3534;49.960;8.018;2023-07-16T09:23:17;22.10;99.90
6988;DHT22;3534;49.960;8.018;2023-07-16T09:25:44;22.10;99.90
6988;DHT22;3534;49.960;8.018;2023-07-16T09:28:11;22.20;99.90
6988;DHT22;3534;49.960;8.018;2023-07-16T09:30:39;22.20;99.90
6988;DHT22;3534;49.960;8.018;2023-07-16T09:33:10;22.30;99.90
6988;DHT22;3534;49.960;8.018;2023-07-16T09:35:37;22.30;99.90
6988;DHT22;3534;49.960;8.018;2023-07-16T09:38:04;22.40;99.90
6988;DHT22;3534;49.960;8.018;2023-07-16T09:40:32;22.50;99.90
6988;DHT22;3534;49.960;8.018;2023-07-16T09:42:59;22.50;99.90
6988;DHT22;3534;49.960;8.018;2023-07-16T09:45:27;22.50;99.90
6988;DHT22;3534;49.960;8.018;2023-07-16T09:47:55;22.60;99.90
6988;DHT22;3534;49.960;8.018;2023-07-16T09:50:23;22.70;99.90
6988;DHT22;3534;49.960;8.018;2023-07-16T09:52:51;22.70;99.90
6988;DHT22;3534;49.960;8.018;2023-07-16T09:55:18;22.80;99.90
6988;DHT22;3534;49.960;8.018;2023-07-16T09:57:48;22.80;99.90
6988;DHT22;3534;49.960;8.018;2023-07-16T10:00:17;22.90;99.90
6988;DHT22;3534;49.960;8.018;2023-07-16T10:02:46;22.90;99.90
6988;DHT22;3534;49.960;8.018;2023-07-16T10:05:15;22.90;99.90
6988;DHT22;3534;49.960;8.018;2023-07-16T10:07:43;22.90;99.90
6988;DHT22;3534;49.960;8.018;2023-07-16T10:10:15;22.90;99.90
6988;DHT22;3534;49.960;8.018;2023-07-16T10:12:53;23.00;99.90
6988;DHT22;3534;49.960;8.018;2023-07-16T10:15:25;23.00;99.90
6988;DHT22;3534;49.960;8.018;2023-07-16T10:17:52;23.10;99.90
6988;DHT22;3534;49.960;8.018;2023-07-16T10:20:29;23.10;99.90
6988;DHT22;3534;49.960;8.018;2023-07-16T10:22:56;23.20;99.90
6988;DHT22;3534;49.960;8.018;2023-07-16T10:25:25;23.20;99.90
6988;DHT22;3534;49.960;8.018;2023-07-16T10:27:52;23.30;99.90
6988;DHT22;3534;49.960;8.018;2023-07-16T10:30:20;23.30;99.90
6988;DHT22;3534;49.960;8.018;2023-07-16T10:32:47;23.40;99.90
6988;DHT22;3534;49.960;8.018;2023-07-16T10:35:14;23.40;99.90
6988;DHT22;3534;49.960;8.018;2023-07-16T10:37:42;23.50;99.90
6988;DHT22;3534;49.960;8.018;2023-07-16T10:40:11;23.50;99.90
6988;DHT22;3534;49.960;8.018;2023-07-16T10:42:40;23.60;99.90
6988;DHT22;3534;49.960;8.018;2023-07-16T10:45:07;23.60;99.90
6988;DHT22;3534;49.960;8.018;2023-07-16T10:47:35;23.70;99.90
6988;DHT22;3534;49.960;8.018;2023-07-16T10:50:03;23.70;99.90
6988;DHT22;3534;49.960;8.018;2023-07-16T10:52:31;23.70;99.90
6988;DHT22;3534;49.960;8.018;2023-07-16T10:54:59;23.80;99.90
6988;DHT22;3534;49.960;8.018;2023-07-16T10:57:26;23.90;99.90
6988;DHT22;3534;49.960;8.018;2023-07-16T10:59:54;23.90;99.90
6988;DHT22;3534;49.960;8.018;2023-07-16T11:02:22;23.90;99.90
6988;DHT22;3534;49.960;8.018;2023-07-16T11:04:50;23.90;99.90
6988;DHT22;3534;49.960;8.018;2023-07-16T11:07:18;23.90;99.90
6988;DHT22;3534;49.960;8.018;2023-07-16T11:09:47;23.90;99.90
6988;DHT22;3534;49.960;8.018;2023-07-16T11:12:17;23.90;99.90
6988;DHT22;3534;49.960;8.018;2023-07-16T11:14:45;23.90;99.90
6988;DHT22;3534;49.960;8.018;2023-07-16T11:17:13;23.90;99.90
6988;DHT22;3534;49.960;8.018;2023-07-16T11:19:41;23.90;99.90
6988;DHT22;3534;49.960;8.018;2023-07-16T11:22:09;23.90;99.90
6988;DHT22;3534;49.960;8.018;2023-07-16T11:24:38;23.90;99.90
6988;DHT22;3534;49.960;8.018;2023-07-16T11:27:06;24.00;99.90
6988;DHT22;3534;49.960;8.018;2023-07-16T11:29:40;24.00;99.90
6988;DHT22;3534;49.960;8.018;2023-07-16T11:32:08;24.10;99.90
6988;DHT22;3534;49.960;8.018;2023-07-16T11:34:34;24.10;99.90
6988;DHT22;3534;49.960;8.018;2023-07-16T11:37:08;24.20;99.90
6988;DHT22;3534;49.960;8.018;2023-07-16T11:39:35;24.30;99.90
6988;DHT22;3534;49.960;8.018;2023-07-16T11:42:02;24.30;99.90
6988;DHT22;3534;49.960;8.018;2023-07-16T11:44:33;24.30;99.90
6988;DHT22;3534;49.960;8.018;2023-07-16T11:47:01;24.30;99.90
6988;DHT22;3534;49.960;8.018;2023-07-16T11:49:28;24.40;99.90
6988;DHT22;3534;49.960;8.018;2023-07-16T11:51:55;24.40;99.90
6988;DHT22;3534;49.960;8.018;2023-07-16T11:54:22;24.40;99.90
6988;DHT22;3534;49.960;8.018;2023-07-16T11:56:49;24.50;99.90
6988;DHT22;3534;49.960;8.018;2023-07-16T11:59:16;24.60;99.90
6988;DHT22;3534;49.960;8.018;2023-07-16T12:01:46;24.60;99.90
6988;DHT22;3534;49.960;8.018;2023-07-16T12:04:15;24.60;99.90
6988;DHT22;3534;49.960;8.018;2023-07-16T12:06:42;24.60;99.90
6988;DHT22;3534;49.960;8.018;2023-07-16T12:09:08;24.70;99.90
6988;DHT22;3534;49.960;8.018;2023-07-16T12:11:35;24.70;99.90
6988;DHT22;3534;49.960;8.018;2023-07-16T12:14:03;24.70;99.90
6988;DHT22;3534;49.960;8.018;2023-07-16T12:16:30;24.80;99.90
6988;DHT22;3534;49.960;8.018;2023-07-16T12:18:57;24.80;99.90
6988;DHT22;3534;49.960;8.018;2023-07-16T12:21:25;24.90;99.90
6988;DHT22;3534;49.960;8.018;2023-07-16T12:23:51;24.90;99.90
6988;DHT22;3534;49.960;8.018;2023-07-16T12:26:18;25.00;99.90
6988;DHT22;3534;49.960;8.018;2023-07-16T12:28:45;25.10;99.90
6988;DHT22;3534;49.960;8.018;2023-07-16T12:31:11;25.10;99.90
6988;DHT22;3534;49.960;8.018;2023-07-16T12:33:38;25.20;99.90
6988;DHT22;3534;49.960;8.018;2023-07-16T12:36:05;25.30;99.90
6988;DHT22;3534;49.960;8.018;2023-07-16T12:38:33;25.40;99.90
6988;DHT22;3534;49.960;8.018;2023-07-16T12:40:59;25.40;99.90
6988;DHT22;3534;49.960;8.018;2023-07-16T12:43:26;25.60;99.90
6988;DHT22;3534;49.960;8.018;2023-07-16T12:45:53;25.60;99.90
6988;DHT22;3534;49.960;8.018;2023-07-16T12:48:19;25.70;99.90
6988;DHT22;3534;49.960;8.018;2023-07-16T12:50:46;25.90;99.90
6988;DHT22;3534;49.960;8.018;2023-07-16T12:53:13;26.00;99.90
6988;DHT22;3534;49.960;8.018;2023-07-16T12:55:41;26.10;99.90
6988;DHT22;3534;49.960;8.018;2023-07-16T12:58:07;26.20;99.90
6988;DHT22;3534;49.960;8.018;2023-07-16T13:00:34;26.30;99.90
6988;DHT22;3534;49.960;8.018;2023-07-16T13:03:01;26.40;99.90
6988;DHT22;3534;49.960;8.018;2023-07-16T13:05:28;26.50;99.20
6988;DHT22;3534;49.960;8.018;2023-07-16T13:07:55;26.60;99.80
6988;DHT22;3534;49.960;8.018;2023-07-16T13:10:22;26.70;99.90
6988;DHT22;3534;49.960;8.018;2023-07-16T13:12:50;26.80;99.60
6988;DHT22;3534;49.960;8.018;2023-07-16T13:15:16;26.90;98.80
6988;DHT22;3534;49.960;8.018;2023-07-16T13:17:43;27.00;96.80
6988;DHT22;3534;49.960;8.018;2023-07-16T13:20:10;27.10;96.90
6988;DHT22;3534;49.960;8.018;2023-07-16T13:22:37;27.30;97.00
6988;DHT22;3534;49.960;8.018;2023-07-16T13:25:05;27.60;96.30
6988;DHT22;3534;49.960;8.018;2023-07-16T13:27:32;28.00;95.90
6988;DHT22;3534;49.960;8.018;2023-07-16T13:30:00;28.20;95.60
6988;DHT22;3534;49.960;8.018;2023-07-16T13:32:27;28.20;95.00
6988;DHT22;3534;49.960;8.018;2023-07-16T13:34:56;28.40;94.20
6988;DHT22;3534;49.960;8.018;2023-07-16T13:37:23;28.50;94.40
6988;DHT22;3534;49.960;8.018;2023-07-16T13:39:49;28.70;93.90
6988;DHT22;3534;49.960;8.018;2023-07-16T13:42:16;29.00;93.50
6988;DHT22;3534;49.960;8.018;2023-07-16T13:44:43;29.20;93.00
6988;DHT22;3534;49.960;8.018;2023-07-16T13:47:11;29.30;92.00
6988;DHT22;3534;49.960;8.018;2023-07-16T13:49:37;29.30;92.00
6988;DHT22;3534;49.960;8.018;2023-07-16T13:52:04;29.20;91.80
6988;DHT22;3534;49.960;8.018;2023-07-16T13:54:31;29.10;91.70
6988;DHT22;3534;49.960;8.018;2023-07-16T13:56:58;29.20;91.50
6988;DHT22;3534;49.960;8.018;2023-07-16T13:59:25;29.40;91.20
6988;DHT22;3534;49.960;8.018;2023-07-16T14:01:59;29.70;90.70
6988;DHT22;3534;49.960;8.018;2023-07-16T14:04:28;29.90;90.60
6988;DHT22;3534;49.960;8.018;2023-07-16T14:06:55;29.90;90.10
6988;DHT22;3534;49.960;8.018;2023-07-16T14:09:22;29.80;88.70
6988;DHT22;3534;49.960;8.018;2023-07-16T14:11:49;29.70;88.80
6988;DHT22;3534;49.960;8.018;2023-07-16T14:14:18;29.70;89.50
6988;DHT22;3534;49.960;8.018;2023-07-16T14:16:45;29.70;89.30
6988;DHT22;3534;49.960;8.018;2023-07-16T14:19:11;29.70;89.10
6988;DHT22;3534;49.960;8.018;2023-07-16T14:21:52;29.60;88.60
6988;DHT22;3534;49.960;8.018;2023-07-16T14:24:19;29.40;87.70
6988;DHT22;3534;49.960;8.018;2023-07-16T14:26:45;29.40;88.50
6988;DHT22;3534;49.960;8.018;2023-07-16T14:29:12;29.40;87.30
6988;DHT22;3534;49.960;8.018;2023-07-16T14:31:39;29.30;87.80
6988;DHT22;3534;49.960;8.018;2023-07-16T14:34:06;29.30;88.00
6988;DHT22;3534;49.960;8.018;2023-07-16T14:36:33;29.50;88.40
6988;DHT22;3534;49.960;8.018;2023-07-16T14:39:01;29.80;87.20
6988;DHT22;3534;49.960;8.018;2023-07-16T14:41:27;30.00;86.90
6988;DHT22;3534;49.960;8.018;2023-07-16T14:43:54;30.30;85.40
6988;DHT22;3534;49.960;8.018;2023-07-16T14:46:21;30.50;85.30
6988;DHT22;3534;49.960;8.018;2023-07-16T14:48:47;30.60;84.00
6988;DHT22;3534;49.960;8.018;2023-07-16T14:51:17;30.50;82.90
6988;DHT22;3534;49.960;8.018;2023-07-16T14:53:44;30.40;83.00
6988;DHT22;3534;49.960;8.018;2023-07-16T14:56:12;30.40;83.70
6988;DHT22;3534;49.960;8.018;2023-07-16T14:58:38;30.40;83.20
6988;DHT22;3534;49.960;8.018;2023-07-16T15:01:05;30.60;82.70
6988;DHT22;3534;49.960;8.018;2023-07-16T15:03:33;30.90;81.10
6988;DHT22;3534;49.960;8.018;2023-07-16T15:06:01;31.20;80.70
6988;DHT22;3534;49.960;8.018;2023-07-16T15:08:28;31.50;80.50
6988;DHT22;3534;49.960;8.018;2023-07-16T15:10:58;31.40;78.80
6988;DHT22;3534;49.960;8.018;2023-07-16T15:13:26;31.70;79.50
6988;DHT22;3534;49.960;8.018;2023-07-16T15:15:54;31.80;77.70
6988;DHT22;3534;49.960;8.018;2023-07-16T15:18:22;31.90;76.60
6988;DHT22;3534;49.960;8.018;2023-07-16T15:20:54;32.00;74.40
6988;DHT22;3534;49.960;8.018;2023-07-16T15:23:21;32.10;74.20
6988;DHT22;3534;49.960;8.018;2023-07-16T15:25:48;32.20;73.60
6988;DHT22;3534;49.960;8.018;2023-07-16T15:28:14;32.20;74.40
6988;DHT22;3534;49.960;8.018;2023-07-16T15:30:42;32.20;73.70
6988;DHT22;3534;49.960;8.018;2023-07-16T15:33:09;32.10;73.20
6988;DHT22;3534;49.960;8.018;2023-07-16T15:35:36;32.20;73.10
6988;DHT22;3534;49.960;8.018;2023-07-16T15:38:02;32.20;74.00
6988;DHT22;3534;49.960;8.018;2023-07-16T15:40:34;32.40;72.40
6988;DHT22;3534;49.960;8.018;2023-07-16T15:43:01;32.40;71.90
6988;DHT22;3534;49.960;8.018;2023-07-16T15:45:27;32.40;70.60
6988;DHT22;3534;49.960;8.018;2023-07-16T15:47:56;32.50;68.70
6988;DHT22;3534;49.960;8.018;2023-07-16T15:50:24;32.40;68.50
6988;DHT22;3534;49.960;8.018;2023-07-16T15:52:51;32.40;68.80
6988;DHT22;3534;49.960;8.018;2023-07-16T15:55:18;32.40;68.70
6988;DHT22;3534;49.960;8.018;2023-07-16T15:57:45;32.50;69.30
6988;DHT22;3534;49.960;8.018;2023-07-16T16:00:12;32.50;67.60
6988;DHT22;3534;49.960;8.018;2023-07-16T16:02:41;32.40;66.00
6988;DHT22;3534;49.960;8.018;2023-07-16T16:05:09;32.30;66.80
6988;DHT22;3534;49.960;8.018;2023-07-16T16:07:41;32.20;67.60